createdAt,value
2022-12-04T00:00:48.833Z,24.50
2022-12-04T00:05:51.800Z,24.00
2022-12-04T00:10:55.991Z,23.75
2022-12-04T00:15:59.284Z,23.25
2022-12-04T00:21:33.018Z,21.00
2022-12-04T00:26:37.261Z,23.75
2022-12-04T00:31:41.487Z,21.75
2022-12-04T00:36:44.962Z,23.25
2022-12-04T00:41:49.250Z,19.50
2022-12-04T00:46:52.058Z,23.75
2022-12-04T00:51:54.854Z,21.75
2022-12-04T00:56:58.965Z,21.75
2022-12-04T01:02:01.810Z,22.00
2022-12-04T01:07:05.405Z,19.00
2022-12-04T01:12:09.706Z,19.75
2022-12-04T01:17:12.544Z,18.00
2022-12-04T01:22:15.989Z,21.75
2022-12-04T01:27:20.291Z,25.00
2022-12-04T01:32:23.258Z,23.75
2022-12-04T01:37:26.186Z,20.25
2022-12-04T01:42:30.441Z,19.25
2022-12-04T01:47:33.728Z,17.25
2022-12-04T01:52:36.647Z,19.75
2022-12-04T01:57:40.814Z,19.25
2022-12-04T02:02:48.120Z,18.50
2022-12-04T02:07:54.385Z,18.00
2022-12-04T02:13:06.749Z,23.25
2022-12-04T02:18:17.316Z,18.50
2022-12-04T02:23:53.332Z,17.50
2022-12-04T02:29:03.807Z,15.50
2022-12-04T02:34:13.277Z,18.50
2022-12-04T02:39:23.085Z,20.75
2022-12-04T02:44:30.759Z,18.00
2022-12-04T02:49:38.929Z,21.50
2022-12-04T02:54:46.912Z,17.25
2022-12-04T02:59:53.893Z,20.00
2022-12-04T03:04:59.996Z,18.50
2022-12-04T03:10:10.913Z,19.50
2022-12-04T03:15:18.849Z,16.75
2022-12-04T03:20:23.124Z,19.25
2022-12-04T03:25:34.009Z,17.50
2022-12-04T03:30:43.001Z,18.75
2022-12-04T03:35:50.909Z,15.75
2022-12-04T03:41:02.513Z,16.75
2022-12-04T03:46:12.698Z,17.75
2022-12-04T03:51:19.542Z,16.75
2022-12-04T03:56:25.583Z,16.50
2022-12-04T04:01:35.966Z,17.00
2022-12-04T04:06:43.161Z,21.25
2022-12-04T04:11:51.024Z,16.00
2022-12-04T04:17:18.004Z,16.00
2022-12-04T04:22:41.026Z,12.75
2022-12-04T04:27:44.241Z,14.50
2022-12-04T04:32:57.998Z,16.50
2022-12-04T04:38:14.413Z,15.75
2022-12-04T04:43:22.884Z,17.75
2022-12-04T04:48:32.988Z,14.75
2022-12-04T04:53:41.683Z,15.50
2022-12-04T04:58:45.005Z,14.25
2022-12-04T05:03:49.493Z,13.00
2022-12-04T05:08:52.278Z,16.00
2022-12-04T05:13:55.120Z,15.75
2022-12-04T05:19:17.006Z,16.00
2022-12-04T05:24:19.889Z,15.00
2022-12-04T05:29:22.709Z,14.50
2022-12-04T05:34:26.932Z,16.50
2022-12-04T05:39:29.843Z,18.75
2022-12-04T05:44:32.737Z,9.75
2022-12-04T05:49:37.283Z,15.00
2022-12-04T05:54:40.279Z,13.25
2022-12-04T05:59:43.241Z,16.00
2022-12-04T06:04:47.402Z,12.25
2022-12-04T06:09:50.115Z,15.00
2022-12-04T06:14:53.085Z,11.25
2022-12-04T06:19:57.727Z,15.00
2022-12-04T06:25:00.903Z,14.75
2022-12-04T06:30:04.115Z,13.75
2022-12-04T06:35:09.458Z,12.50
2022-12-04T06:40:12.700Z,13.50
2022-12-04T06:45:15.529Z,14.25
2022-12-04T06:50:19.939Z,14.00
2022-12-04T06:55:22.853Z,12.00
2022-12-04T07:00:25.665Z,10.00
2022-12-04T07:05:29.860Z,12.50
2022-12-04T07:10:32.709Z,10.00
2022-12-04T07:15:36.428Z,15.75
2022-12-04T07:20:42.457Z,13.00
2022-12-04T07:25:45.333Z,12.00
2022-12-04T07:30:48.116Z,13.50
2022-12-04T07:35:57.678Z,10.00
2022-12-04T07:41:01.459Z,10.25
2022-12-04T07:46:07.385Z,10.00
2022-12-04T07:51:13.330Z,12.25
2022-12-04T07:56:16.778Z,11.25
2022-12-04T08:01:21.173Z,10.75
2022-12-04T08:06:26.771Z,45.60
2022-12-04T08:11:29.394Z,58.40
2022-12-04T08:16:33.600Z,58.20
2022-12-04T08:21:37.875Z,56.60
2022-12-04T08:26:40.664Z,52.60
2022-12-04T08:31:43.497Z,56.20
2022-12-04T08:36:47.699Z,51.80
2022-12-04T08:41:56.669Z,50.80
2022-12-04T08:46:59.939Z,50.40
2022-12-04T08:52:04.223Z,48.20
2022-12-04T08:57:07.383Z,50.00
2022-12-04T09:02:11.434Z,50.60
2022-12-04T09:07:15.534Z,53.80
2022-12-04T09:12:19.039Z,49.40
2022-12-04T09:17:22.004Z,49.20
2022-12-04T09:22:26.244Z,45.80
2022-12-04T09:27:29.201Z,47.80
2022-12-04T09:32:31.966Z,44.60
2022-12-04T09:37:37.592Z,48.20
2022-12-04T09:42:46.917Z,49.00
2022-12-04T09:47:53.196Z,45.00
2022-12-04T09:53:01.562Z,43.80
2022-12-04T09:58:07.693Z,43.20
2022-12-04T10:03:15.715Z,43.00
2022-12-04T10:08:23.760Z,45.40
2022-12-04T10:13:52.207Z,40.80
2022-12-04T10:19:04.192Z,40.00
2022-12-04T10:24:23.564Z,44.20
2022-12-04T10:29:31.570Z,44.00
2022-12-04T10:34:34.477Z,43.60
2022-12-04T10:39:45.587Z,46.00
2022-12-04T10:44:48.482Z,40.80
2022-12-04T10:50:00.011Z,40.60
2022-12-04T10:55:04.316Z,42.40
2022-12-04T11:00:25.625Z,41.00
2022-12-04T11:05:32.864Z,40.80
2022-12-04T11:10:40.587Z,40.80
2022-12-04T11:15:45.615Z,40.20
2022-12-04T11:20:54.575Z,35.00
2022-12-04T11:26:05.936Z,41.20
2022-12-04T11:31:11.382Z,36.80
2022-12-04T11:36:22.634Z,39.40
2022-12-04T11:41:28.855Z,43.60
2022-12-04T11:46:34.043Z,42.60
2022-12-04T11:51:51.323Z,38.60
2022-12-04T11:57:07.904Z,42.80
2022-12-04T12:02:31.991Z,47.40
2022-12-04T12:07:44.029Z,48.40
2022-12-04T12:13:02.432Z,44.20
2022-12-04T12:18:22.813Z,41.00
2022-12-04T12:23:46.822Z,43.40
2022-12-04T12:29:11.545Z,46.00
2022-12-04T12:34:21.405Z,42.40
2022-12-04T12:39:27.472Z,41.60
2022-12-04T12:44:37.973Z,42.00
2022-12-04T12:49:48.866Z,42.00
2022-12-04T12:54:57.305Z,41.00
2022-12-04T13:00:07.357Z,40.40
2022-12-04T13:05:12.536Z,38.20
2022-12-04T13:10:20.201Z,36.00
2022-12-04T13:15:30.809Z,40.40
2022-12-04T13:20:43.972Z,37.00
2022-12-04T13:25:58.254Z,36.60
2022-12-04T13:31:14.272Z,37.60
2022-12-04T13:36:30.641Z,35.00
2022-12-04T13:41:39.309Z,38.20
2022-12-04T13:46:53.520Z,40.00
2022-12-04T13:51:57.948Z,39.40
2022-12-04T13:57:19.768Z,36.60
2022-12-04T14:02:29.760Z,37.60
2022-12-04T14:07:35.555Z,38.80
2022-12-04T14:12:41.899Z,35.60
2022-12-04T14:17:59.199Z,40.00
2022-12-04T14:23:11.119Z,41.80
2022-12-04T14:28:24.252Z,44.20
2022-12-04T14:33:30.816Z,43.60
2022-12-04T14:38:34.201Z,45.80
2022-12-04T14:43:40.553Z,44.20
2022-12-04T14:48:53.984Z,41.60
2022-12-04T14:54:08.418Z,43.80
2022-12-04T14:59:18.401Z,41.40
2022-12-04T15:04:27.109Z,41.00
2022-12-04T15:09:47.744Z,41.80
2022-12-04T15:14:51.191Z,44.20
2022-12-04T15:19:55.319Z,41.80
2022-12-04T15:24:58.741Z,39.60
2022-12-04T15:30:03.837Z,46.20
2022-12-04T15:35:14.078Z,41.80
2022-12-04T15:40:22.265Z,44.40
2022-12-04T15:45:34.290Z,44.80
2022-12-04T15:50:38.409Z,45.40
2022-12-04T15:55:51.796Z,43.00
2022-12-04T16:00:57.354Z,45.60
2022-12-04T16:06:20.489Z,36.60
2022-12-04T16:11:35.836Z,37.80
2022-12-04T16:16:42.117Z,43.60
2022-12-04T16:21:46.988Z,45.00
2022-12-04T16:26:51.370Z,41.00
2022-12-04T16:31:58.243Z,43.60
2022-12-04T16:37:13.272Z,36.60
2022-12-04T16:42:18.771Z,34.20
2022-12-04T16:47:22.339Z,42.00
2022-12-04T16:52:26.644Z,42.40
2022-12-04T16:57:29.526Z,40.40
2022-12-04T17:02:32.651Z,42.80
2022-12-04T17:07:36.903Z,40.00
2022-12-04T17:12:39.837Z,40.40
2022-12-04T17:17:42.704Z,40.20
2022-12-04T17:22:46.847Z,43.40
2022-12-04T17:27:49.636Z,42.00
2022-12-04T17:32:52.917Z,40.40
2022-12-04T17:38:02.090Z,40.60
2022-12-04T17:43:08.382Z,47.20
2022-12-04T17:48:11.138Z,40.40
2022-12-04T17:53:15.718Z,39.40
2022-12-04T17:58:18.615Z,37.80
2022-12-04T18:03:21.486Z,40.60
2022-12-04T18:08:28.833Z,38.00
2022-12-04T18:13:31.917Z,43.60
2022-12-04T18:18:35.377Z,43.80
2022-12-04T18:23:45.132Z,44.40
2022-12-04T18:28:48.825Z,42.40
2022-12-04T18:33:52.188Z,45.60
2022-12-04T18:38:58.094Z,44.20
2022-12-04T18:44:00.918Z,42.00
2022-12-04T18:49:04.358Z,43.80
2022-12-04T18:54:11.754Z,46.00
2022-12-04T18:59:16.478Z,45.00
2022-12-04T19:04:21.992Z,40.40
2022-12-04T19:10:02.489Z,41.00
2022-12-04T19:14:52.501Z,41.20
2022-12-04T19:19:55.709Z,43.60
2022-12-04T19:25:00.098Z,42.80
2022-12-04T19:30:02.937Z,44.00
2022-12-04T19:35:06.195Z,40.60
2022-12-04T19:40:11.696Z,43.60
2022-12-04T19:45:14.897Z,44.00
2022-12-04T19:50:17.889Z,38.00
2022-12-04T19:55:22.134Z,42.20
2022-12-04T20:00:25.077Z,39.60
2022-12-04T20:05:28.028Z,45.40
2022-12-04T20:10:33.102Z,44.40
2022-12-04T20:15:36.611Z,41.80
2022-12-04T20:20:41.125Z,42.00
2022-12-04T20:25:45.485Z,43.00
2022-12-04T20:30:49.805Z,45.00
2022-12-04T20:35:52.740Z,47.40
2022-12-04T20:40:56.844Z,41.60
2022-12-04T20:46:00.053Z,46.60
2022-12-04T20:51:02.920Z,44.00
2022-12-04T20:56:08.215Z,47.20
2022-12-04T21:01:13.439Z,44.80
2022-12-04T21:06:19.694Z,46.20
2022-12-04T21:11:25.228Z,47.00
2022-12-04T21:16:28.179Z,46.60
2022-12-04T21:21:31.064Z,44.40
2022-12-04T21:26:35.729Z,46.00
2022-12-04T21:31:39.339Z,43.80
2022-12-04T21:36:42.632Z,47.40
2022-12-04T21:42:04.513Z,44.80
2022-12-04T21:47:07.333Z,44.80
2022-12-04T21:52:10.237Z,58.00
2022-12-04T21:57:14.458Z,46.20
2022-12-04T22:02:17.401Z,50.40
2022-12-04T22:07:20.244Z,47.00
2022-12-04T22:12:48.639Z,42.60
2022-12-04T22:17:47.176Z,50.80
2022-12-04T22:22:50.159Z,45.80
2022-12-04T22:27:55.200Z,44.80
2022-12-04T22:32:58.251Z,46.00
2022-12-04T22:38:01.121Z,43.20
2022-12-04T22:43:05.559Z,47.20
2022-12-04T22:48:08.362Z,45.80
2022-12-04T22:53:11.273Z,46.80
2022-12-04T22:58:15.577Z,43.60
2022-12-04T23:03:18.427Z,46.80
2022-12-04T23:08:21.310Z,43.40
2022-12-04T23:13:25.468Z,42.40
2022-12-04T23:18:28.572Z,42.80
2022-12-04T23:23:31.561Z,41.40
2022-12-04T23:28:36.388Z,44.20
2022-12-04T23:33:39.882Z,44.00
2022-12-04T23:38:44.415Z,40.80
2022-12-04T23:43:49.608Z,43.40
2022-12-04T23:48:52.542Z,40.40
2022-12-04T23:53:55.882Z,40.00
2022-12-04T23:59:00.038Z,44.20
